createdAt,value
2022-08-28T00:00:20.662Z,3.00
2022-08-28T00:02:48.083Z,2.67
2022-08-28T00:05:17.102Z,2.78
2022-08-28T00:07:47.639Z,3.92
2022-08-28T00:10:17.484Z,3.45
2022-08-28T00:12:47.005Z,3.03
2022-08-28T00:15:17.435Z,3.20
2022-08-28T00:17:44.822Z,4.20
2022-08-28T00:20:12.915Z,3.20
2022-08-28T00:22:40.520Z,3.40
2022-08-28T00:25:09.489Z,3.43
2022-08-28T00:27:55.048Z,4.40
2022-08-28T00:30:26.913Z,4.70
2022-08-28T00:32:55.680Z,4.25
2022-08-28T00:35:23.817Z,3.45
2022-08-28T00:37:51.202Z,3.80
2022-08-28T00:40:19.972Z,3.95
2022-08-28T00:42:55.706Z,2.92
2022-08-28T00:45:24.037Z,3.20
2022-08-28T00:47:52.856Z,3.28
2022-08-28T00:50:23.111Z,3.63
2022-08-28T00:52:53.455Z,3.40
2022-08-28T00:55:23.041Z,3.38
2022-08-28T00:57:56.519Z,3.63
2022-08-28T01:00:33.800Z,3.80
2022-08-28T01:03:00.558Z,3.60
2022-08-28T01:05:28.903Z,3.63
2022-08-28T01:07:58.753Z,4.07
2022-08-28T01:10:28.116Z,3.65
2022-08-28T01:12:56.911Z,3.88
2022-08-28T01:15:28.348Z,4.10
2022-08-28T01:18:04.647Z,4.40
2022-08-28T01:20:35.799Z,4.05
2022-08-28T01:23:07.055Z,4.20
2022-08-28T01:25:35.795Z,3.53
2022-08-28T01:28:05.236Z,3.97
2022-08-28T01:30:32.494Z,3.67
2022-08-28T01:32:59.209Z,4.10
2022-08-28T01:35:31.136Z,4.05
2022-08-28T01:37:57.801Z,4.88
2022-08-28T01:40:39.566Z,4.00
2022-08-28T01:43:14.883Z,4.65
2022-08-28T01:45:45.040Z,4.35
2022-08-28T01:48:14.296Z,4.72
2022-08-28T01:50:42.205Z,4.78
2022-08-28T01:53:12.387Z,4.47
2022-08-28T01:55:39.340Z,4.05
2022-08-28T01:58:06.908Z,4.50
2022-08-28T02:00:33.804Z,4.75
2022-08-28T02:03:00.880Z,4.30
2022-08-28T02:05:30.486Z,4.43
2022-08-28T02:07:57.756Z,4.22
2022-08-28T02:10:25.323Z,4.77
2022-08-28T02:12:53.357Z,4.15
2022-08-28T02:15:20.034Z,4.43
2022-08-28T02:17:50.298Z,4.85
2022-08-28T02:20:17.325Z,4.47
2022-08-28T02:22:44.526Z,4.10
2022-08-28T02:25:12.060Z,4.18
2022-08-28T02:27:39.060Z,4.45
2022-08-28T02:30:08.032Z,4.05
2022-08-28T02:32:35.164Z,4.57
2022-08-28T02:35:02.630Z,4.40
2022-08-28T02:37:29.143Z,4.07
2022-08-28T02:39:58.076Z,4.75
2022-08-28T02:42:26.277Z,4.25
2022-08-28T02:44:52.883Z,4.22
2022-08-28T02:47:19.583Z,4.45
2022-08-28T02:49:46.096Z,4.75
2022-08-28T02:52:12.809Z,4.70
2022-08-28T02:54:40.060Z,4.05
2022-08-28T02:57:08.323Z,5.30
2022-08-28T02:59:38.579Z,4.35
2022-08-28T03:02:07.263Z,4.60
2022-08-28T03:04:35.550Z,4.60
2022-08-28T03:07:02.548Z,4.15
2022-08-28T03:09:29.217Z,4.10
2022-08-28T03:11:55.759Z,4.70
2022-08-28T03:14:22.995Z,4.53
2022-08-28T03:16:50.206Z,4.05
2022-08-28T03:19:16.749Z,5.13
2022-08-28T03:21:43.255Z,4.93
2022-08-28T03:24:10.206Z,4.35
2022-08-28T03:26:41.729Z,4.78
2022-08-28T03:29:08.260Z,4.20
2022-08-28T03:31:36.134Z,4.90
2022-08-28T03:34:02.638Z,4.22
2022-08-28T03:36:29.559Z,4.80
2022-08-28T03:38:59.263Z,4.50
2022-08-28T03:41:29.094Z,4.60
2022-08-28T03:43:57.682Z,4.18
2022-08-28T03:48:52.327Z,4.15
2022-08-28T03:51:29.393Z,4.90
2022-08-28T03:53:57.991Z,4.35
2022-08-28T03:56:25.968Z,4.43
2022-08-28T03:58:57.477Z,5.10
2022-08-28T04:01:24.763Z,4.35
2022-08-28T04:03:51.522Z,4.88
2022-08-28T04:06:19.489Z,4.55
2022-08-28T04:08:46.457Z,5.28
2022-08-28T04:11:13.118Z,4.43
2022-08-28T04:13:41.567Z,5.00
2022-08-28T04:16:10.951Z,4.38
2022-08-28T04:18:40.577Z,3.88
2022-08-28T04:21:11.728Z,4.82
2022-08-28T04:23:39.708Z,4.07
2022-08-28T04:26:07.902Z,5.07
2022-08-28T04:28:35.374Z,4.25
2022-08-28T04:31:03.088Z,4.05
2022-08-28T04:33:30.491Z,4.97
2022-08-28T04:35:57.438Z,4.15
2022-08-28T04:38:24.267Z,4.28
2022-08-28T04:40:50.809Z,4.20
2022-08-28T04:43:17.403Z,4.10
2022-08-28T04:45:45.670Z,3.92
2022-08-28T04:48:13.714Z,3.85
2022-08-28T04:50:48.906Z,4.00
2022-08-28T04:53:18.816Z,4.13
2022-08-28T04:55:54.072Z,4.32
2022-08-28T04:58:23.993Z,4.82
2022-08-28T05:00:52.924Z,3.75
2022-08-28T05:05:55.091Z,3.63
2022-08-28T05:08:24.678Z,4.15
2022-08-28T05:10:51.185Z,3.80
2022-08-28T05:13:18.587Z,4.10
2022-08-28T05:15:48.240Z,4.60
2022-08-28T05:18:16.746Z,4.75
2022-08-28T05:20:45.912Z,4.25
2022-08-28T05:23:13.554Z,4.20
2022-08-28T05:25:43.076Z,4.90
2022-08-28T05:28:12.277Z,4.63
2022-08-28T05:30:41.343Z,4.35
2022-08-28T05:33:09.897Z,4.07
2022-08-28T05:38:05.791Z,4.10
2022-08-28T05:40:32.500Z,3.78
2022-08-28T05:42:59.376Z,3.88
2022-08-28T05:45:25.930Z,4.38
2022-08-28T05:47:52.732Z,4.00
2022-08-28T05:50:19.240Z,3.70
2022-08-28T05:52:45.722Z,3.58
2022-08-28T05:55:13.238Z,4.10
2022-08-28T05:57:40.938Z,4.53
2022-08-28T06:00:13.684Z,3.57
2022-08-28T06:02:42.055Z,3.53
2022-08-28T06:05:12.931Z,3.47
2022-08-28T06:07:41.047Z,4.85
2022-08-28T06:10:10.578Z,4.05
2022-08-28T06:12:37.941Z,3.78
2022-08-28T06:15:06.016Z,4.20
2022-08-28T06:17:32.684Z,4.43
2022-08-28T06:19:59.297Z,3.88
2022-08-28T06:22:25.806Z,3.78
2022-08-28T06:24:52.343Z,3.92
2022-08-28T06:27:18.919Z,3.17
2022-08-28T06:29:45.857Z,3.55
2022-08-28T06:32:13.259Z,3.33
2022-08-28T06:34:39.990Z,3.10
2022-08-28T06:37:06.664Z,4.22
2022-08-28T06:39:33.164Z,4.07
2022-08-28T06:41:59.972Z,3.33
2022-08-28T06:44:27.981Z,3.85
2022-08-28T06:46:54.834Z,3.63
2022-08-28T06:49:21.935Z,3.25
2022-08-28T06:51:48.742Z,3.00
2022-08-28T06:54:21.410Z,3.42
2022-08-28T06:56:49.514Z,3.33
2022-08-28T06:59:16.032Z,3.53
2022-08-28T07:01:42.577Z,3.22
2022-08-28T07:04:11.944Z,3.55
2022-08-28T07:06:41.272Z,3.25
2022-08-28T07:09:11.092Z,3.83
2022-08-28T07:11:38.576Z,3.00
2022-08-28T07:14:06.908Z,2.70
2022-08-28T07:16:38.320Z,3.08
2022-08-28T07:19:11.253Z,3.72
2022-08-28T07:21:40.003Z,3.85
2022-08-28T07:24:08.520Z,3.13
2022-08-28T07:26:35.864Z,3.10
2022-08-28T07:29:10.951Z,3.15
2022-08-28T07:31:46.496Z,3.50
2022-08-28T07:34:14.660Z,3.13
2022-08-28T07:36:41.985Z,2.90
2022-08-28T07:39:10.066Z,3.47
2022-08-28T07:41:40.119Z,3.13
2022-08-28T07:44:26.319Z,2.90
2022-08-28T07:46:57.975Z,3.10
2022-08-28T07:49:25.711Z,3.38
2022-08-28T07:51:54.202Z,2.72
2022-08-28T07:54:21.467Z,2.53
2022-08-28T07:56:47.966Z,2.58
2022-08-28T07:59:19.359Z,2.58
2022-08-28T08:01:50.681Z,2.63
2022-08-28T08:04:23.762Z,2.42
2022-08-28T08:06:57.618Z,2.70
2022-08-28T08:09:25.341Z,2.38
2022-08-28T08:11:52.291Z,2.63
2022-08-28T08:14:18.943Z,3.08
2022-08-28T08:16:47.416Z,2.28
2022-08-28T08:19:15.514Z,2.50
2022-08-28T08:21:54.679Z,2.90
2022-08-28T08:24:37.371Z,2.58
2022-08-28T08:27:04.096Z,2.78
2022-08-28T08:29:53.987Z,2.78
2022-08-28T08:32:20.627Z,3.08
2022-08-28T08:34:47.358Z,3.10
2022-08-28T08:37:14.121Z,2.10
2022-08-28T08:39:42.563Z,3.15
2022-08-28T08:42:23.032Z,2.83
2022-08-28T08:44:51.960Z,2.47
2022-08-28T08:47:51.535Z,2.38
2022-08-28T08:50:30.891Z,1.92
2022-08-28T08:53:23.459Z,2.35
2022-08-28T08:55:57.860Z,2.38
2022-08-28T08:58:36.614Z,2.60
2022-08-28T09:01:31.373Z,2.63
2022-08-28T09:04:04.298Z,2.45
2022-08-28T09:06:59.440Z,2.42
2022-08-28T09:09:41.935Z,2.83
2022-08-28T09:12:14.099Z,2.85
2022-08-28T09:15:05.196Z,2.60
2022-08-28T09:17:47.889Z,2.65
2022-08-28T09:20:25.916Z,2.53
2022-08-28T09:22:59.836Z,2.63
2022-08-28T09:25:44.626Z,2.58
2022-08-28T09:28:23.567Z,2.83
2022-08-28T09:31:01.375Z,2.90
2022-08-28T09:33:49.556Z,2.80
2022-08-28T09:36:31.881Z,2.45
2022-08-28T09:39:32.542Z,2.72
2022-08-28T09:42:33.057Z,2.30
2022-08-28T09:45:20.157Z,2.15
2022-08-28T09:47:51.092Z,2.08
2022-08-28T09:50:29.031Z,2.28
2022-08-28T09:52:58.601Z,2.15
2022-08-28T09:55:36.037Z,2.17
2022-08-28T09:58:04.033Z,2.20
2022-08-28T10:00:36.097Z,2.20
2022-08-28T10:03:21.398Z,2.58
2022-08-28T10:06:18.616Z,2.30
2022-08-28T10:09:13.659Z,2.67
2022-08-28T10:11:52.268Z,1.80
2022-08-28T10:14:38.256Z,2.55
2022-08-28T10:17:26.007Z,1.80
2022-08-28T10:20:01.831Z,2.20
2022-08-28T10:22:47.715Z,2.45
2022-08-28T10:25:14.167Z,2.45
2022-08-28T10:27:49.811Z,2.25
2022-08-28T10:30:22.887Z,2.10
2022-08-28T10:32:59.565Z,2.13
2022-08-28T10:35:40.066Z,2.00
2022-08-28T10:38:16.237Z,2.50
2022-08-28T10:41:04.148Z,2.50
2022-08-28T10:43:41.538Z,2.15
2022-08-28T10:46:42.616Z,2.17
2022-08-28T10:49:21.294Z,2.25
2022-08-28T10:51:57.165Z,2.25
2022-08-28T10:55:00.250Z,2.30
2022-08-28T10:57:49.065Z,2.05
2022-08-28T11:00:21.862Z,1.90
2022-08-28T11:03:01.015Z,2.40
2022-08-28T11:05:35.798Z,1.80
2022-08-28T11:08:07.771Z,2.22
2022-08-28T11:10:37.088Z,2.42
2022-08-28T11:13:07.116Z,2.20
2022-08-28T11:15:37.159Z,2.10
2022-08-28T11:18:16.382Z,2.10
2022-08-28T11:20:55.518Z,2.03
2022-08-28T11:23:30.057Z,2.60
2022-08-28T11:26:02.241Z,2.58
2022-08-28T11:28:34.696Z,2.03
2022-08-28T11:31:01.179Z,1.67
2022-08-28T11:33:39.926Z,2.28
2022-08-28T11:36:32.579Z,2.13
2022-08-28T11:39:02.993Z,2.05
2022-08-28T11:41:39.106Z,2.17
2022-08-28T11:44:12.385Z,2.00
2022-08-28T11:46:47.462Z,2.33
2022-08-28T11:49:29.209Z,2.17
2022-08-28T11:52:10.918Z,2.40
2022-08-28T11:55:02.423Z,2.80
2022-08-28T12:00:49.276Z,2.17
2022-08-28T12:03:38.418Z,2.03
2022-08-28T12:06:06.837Z,1.60
2022-08-28T12:08:46.603Z,1.80
2022-08-28T12:11:41.149Z,2.08
2022-08-28T12:14:32.007Z,2.13
2022-08-28T12:16:58.461Z,1.75
2022-08-28T12:19:55.929Z,1.73
2022-08-28T12:22:44.504Z,2.13
2022-08-28T12:27:44.834Z,2.33
2022-08-28T12:30:12.161Z,1.70
2022-08-28T12:32:59.850Z,1.63
2022-08-28T12:35:29.840Z,1.95
2022-08-28T12:37:57.330Z,1.83
2022-08-28T12:40:50.384Z,1.73
2022-08-28T12:43:32.140Z,1.75
2022-08-28T12:46:04.028Z,2.28
2022-08-28T12:48:51.507Z,1.63
2022-08-28T12:51:30.979Z,1.80
2022-08-28T12:54:03.822Z,2.17
2022-08-28T12:56:34.124Z,1.58
2022-08-28T12:59:32.505Z,1.80
2022-08-28T13:04:36.888Z,24.35
2022-08-28T13:07:10.888Z,9.68
2022-08-28T13:09:42.238Z,4.07
2022-08-28T13:12:22.905Z,2.35
2022-08-28T13:15:02.657Z,2.33
2022-08-28T13:17:50.529Z,1.70
2022-08-28T13:20:27.984Z,1.75
2022-08-28T13:22:55.544Z,1.70
2022-08-28T13:25:29.513Z,1.47
2022-08-28T13:28:20.559Z,2.40
2022-08-28T13:30:58.123Z,2.13
2022-08-28T13:33:26.848Z,1.95
2022-08-28T13:35:53.917Z,1.98
2022-08-28T13:38:25.039Z,1.88
2022-08-28T13:40:58.438Z,1.25
2022-08-28T13:43:28.555Z,1.48
2022-08-28T13:45:55.616Z,1.58
2022-08-28T13:48:25.139Z,1.58
2022-08-28T13:51:01.685Z,1.75
2022-08-28T14:00:55.477Z,1.35
2022-08-28T14:03:38.138Z,1.30
2022-08-28T14:06:12.442Z,1.42
2022-08-28T14:08:40.679Z,1.55
2022-08-28T14:11:07.737Z,1.60
2022-08-28T14:13:35.964Z,1.80
2022-08-28T14:16:07.882Z,1.42
2022-08-28T14:18:35.041Z,1.63
2022-08-28T14:21:05.048Z,1.67
2022-08-28T14:23:31.631Z,1.85
2022-08-28T14:25:58.187Z,1.75
2022-08-28T14:28:24.697Z,1.80
2022-08-28T14:30:51.862Z,1.45
2022-08-28T14:33:20.523Z,1.65
2022-08-28T14:35:48.883Z,1.45
2022-08-28T14:38:16.070Z,1.50
2022-08-28T14:40:43.689Z,1.80
2022-08-28T14:43:12.115Z,1.93
2022-08-28T14:48:18.428Z,1.70
2022-08-28T14:50:47.973Z,1.50
2022-08-28T14:53:15.752Z,1.50
2022-08-28T14:55:49.986Z,1.30
2022-08-28T14:58:18.311Z,1.55
2022-08-28T15:00:48.905Z,1.60
2022-08-28T15:03:17.275Z,1.35
2022-08-28T15:08:15.300Z,1.50
2022-08-28T15:10:42.869Z,1.45
2022-08-28T15:13:10.666Z,2.43
2022-08-28T15:15:42.572Z,1.85
2022-08-28T15:18:11.031Z,1.40
2022-08-28T15:23:09.617Z,1.30
2022-08-28T15:25:36.209Z,1.73
2022-08-28T15:28:02.936Z,1.70
2022-08-28T15:30:29.624Z,1.45
2022-08-28T15:32:56.246Z,1.65
2022-08-28T15:35:22.848Z,1.63
2022-08-28T15:37:49.456Z,1.33
2022-08-28T15:40:34.468Z,1.67
2022-08-28T15:43:01.181Z,1.77
2022-08-28T15:45:27.834Z,1.75
2022-08-28T15:47:54.697Z,2.13
2022-08-28T15:50:21.322Z,1.60
2022-08-28T15:52:48.457Z,1.80
2022-08-28T15:55:14.984Z,1.60
2022-08-28T15:57:41.517Z,1.42
2022-08-28T16:00:10.532Z,1.92
2022-08-28T16:02:38.523Z,1.40
2022-08-28T16:05:06.058Z,1.38
2022-08-28T16:07:32.728Z,1.50
2022-08-28T16:09:59.227Z,2.08
2022-08-28T16:12:25.752Z,3.08
2022-08-28T16:14:52.380Z,1.60
2022-08-28T16:17:19.009Z,1.83
2022-08-28T16:19:46.589Z,1.83
2022-08-28T16:22:16.757Z,1.70
2022-08-28T16:24:44.985Z,1.85
2022-08-28T16:27:15.400Z,2.33
2022-08-28T16:29:43.263Z,1.77
2022-08-28T16:32:11.797Z,1.80
2022-08-28T16:34:38.947Z,1.90
2022-08-28T16:37:08.003Z,1.92
2022-08-28T16:39:35.811Z,1.90
2022-08-28T16:42:02.399Z,1.80
2022-08-28T16:44:28.900Z,1.55
2022-08-28T16:46:56.025Z,1.60
2022-08-28T16:49:23.891Z,1.52
2022-08-28T16:51:51.126Z,1.70
2022-08-28T16:54:18.423Z,1.80
2022-08-28T16:56:45.691Z,1.63
2022-08-28T16:59:12.632Z,1.40
2022-08-28T17:01:40.946Z,1.50
2022-08-28T17:04:09.556Z,1.50
2022-08-28T17:06:36.119Z,1.60
2022-08-28T17:09:02.650Z,1.92
2022-08-28T17:11:29.386Z,1.58
2022-08-28T17:13:56.827Z,1.45
2022-08-28T17:16:26.010Z,1.60
2022-08-28T17:18:53.011Z,1.77
2022-08-28T17:21:40.117Z,1.45
2022-08-28T17:24:07.374Z,1.70
2022-08-28T17:26:34.017Z,2.17
2022-08-28T17:29:00.614Z,1.90
2022-08-28T17:31:27.446Z,1.90
2022-08-28T17:33:54.351Z,1.80
2022-08-28T17:36:33.411Z,1.63
2022-08-28T17:39:02.307Z,1.83
2022-08-28T17:41:29.069Z,1.80
2022-08-28T17:43:55.565Z,1.60
2022-08-28T17:46:22.530Z,2.10
2022-08-28T17:48:55.690Z,1.70
2022-08-28T17:51:42.925Z,1.92
2022-08-28T17:54:18.383Z,1.80
2022-08-28T17:56:45.055Z,1.65
2022-08-28T17:59:12.504Z,1.88
2022-08-28T18:01:39.341Z,1.88
2022-08-28T18:04:05.944Z,2.88
2022-08-28T18:06:32.752Z,1.95
2022-08-28T18:08:59.388Z,1.85
2022-08-28T18:11:26.213Z,1.73
2022-08-28T18:13:53.078Z,1.70
2022-08-28T18:16:19.616Z,1.80
2022-08-28T18:18:46.258Z,1.58
2022-08-28T18:21:14.124Z,1.70
2022-08-28T18:23:40.741Z,2.13
2022-08-28T18:26:08.582Z,1.80
2022-08-28T18:28:36.976Z,1.42
2022-08-28T18:31:06.595Z,1.92
2022-08-28T18:33:34.307Z,1.98
2022-08-28T18:36:01.117Z,2.10
2022-08-28T18:38:28.632Z,1.95
2022-08-28T18:40:56.190Z,2.33
2022-08-28T18:43:23.971Z,1.90
2022-08-28T18:45:51.322Z,1.73
2022-08-28T18:48:19.217Z,1.83
2022-08-28T18:50:47.473Z,1.90
2022-08-28T18:53:19.368Z,1.98
2022-08-28T18:55:46.106Z,2.17
2022-08-28T18:58:15.452Z,1.80
2022-08-28T19:00:43.615Z,2.08
2022-08-28T19:03:11.027Z,2.10
2022-08-28T19:05:38.538Z,1.83
2022-08-28T19:08:05.596Z,2.15
2022-08-28T19:10:34.718Z,1.92
2022-08-28T19:13:02.620Z,2.10
2022-08-28T19:15:30.214Z,3.05
2022-08-28T19:18:00.292Z,2.10
2022-08-28T19:20:28.099Z,1.88
2022-08-28T19:22:56.284Z,2.35
2022-08-28T19:25:28.194Z,2.13
2022-08-28T19:27:59.790Z,2.40
2022-08-28T19:30:29.060Z,2.42
2022-08-28T19:32:55.863Z,2.28
2022-08-28T19:35:24.173Z,2.20
2022-08-28T19:37:54.303Z,2.50
2022-08-28T19:40:22.240Z,2.35
2022-08-28T19:42:50.062Z,2.38
2022-08-28T19:45:17.929Z,2.10
2022-08-28T19:47:45.398Z,2.22
2022-08-28T19:50:13.910Z,2.22
2022-08-28T19:55:08.902Z,2.20
2022-08-28T19:57:35.583Z,2.22
2022-08-28T20:00:04.068Z,2.55
2022-08-28T20:02:30.645Z,2.20
2022-08-28T20:04:57.519Z,2.33
2022-08-28T20:07:25.098Z,2.20
2022-08-28T20:09:52.369Z,1.92
2022-08-28T20:12:19.458Z,2.20
2022-08-28T20:14:47.125Z,2.00
2022-08-28T20:17:14.064Z,2.27
2022-08-28T20:19:41.210Z,1.80
2022-08-28T20:22:07.724Z,2.25
2022-08-28T20:24:34.499Z,2.17
2022-08-28T20:27:01.007Z,1.77
2022-08-28T20:29:27.543Z,1.90
2022-08-28T20:31:54.180Z,1.77
2022-08-28T20:34:21.310Z,2.15
2022-08-28T20:36:48.535Z,2.03
2022-08-28T20:39:15.571Z,2.17
2022-08-28T20:41:43.887Z,2.15
2022-08-28T20:44:12.898Z,2.03
2022-08-28T20:46:42.100Z,1.95
2022-08-28T20:49:10.909Z,2.00
2022-08-28T20:54:36.503Z,1.73
2022-08-28T20:57:07.793Z,1.70
2022-08-28T20:59:39.525Z,1.80
2022-08-28T21:02:22.944Z,1.83
2022-08-28T21:04:50.247Z,1.65
2022-08-28T21:07:19.954Z,1.98
2022-08-28T21:12:34.595Z,1.60
2022-08-28T21:15:01.277Z,1.92
2022-08-28T21:17:29.777Z,1.88
2022-08-28T21:20:11.646Z,1.65
2022-08-28T21:22:39.412Z,1.90
2022-08-28T21:25:08.827Z,2.22
2022-08-28T21:27:36.359Z,2.20
2022-08-28T21:30:05.024Z,1.70
2022-08-28T21:32:33.854Z,1.98
2022-08-28T21:35:02.331Z,2.28
2022-08-28T21:37:29.170Z,1.80
2022-08-28T21:39:57.867Z,2.35
2022-08-28T21:42:25.044Z,2.15
2022-08-28T21:44:52.252Z,1.55
2022-08-28T21:47:21.448Z,2.22
2022-08-28T21:49:49.525Z,1.80
2022-08-28T21:52:18.549Z,1.65
2022-08-28T21:54:45.121Z,2.15
2022-08-28T21:57:11.705Z,2.53
2022-08-28T21:59:38.951Z,2.05
2022-08-28T22:02:06.015Z,2.00
2022-08-28T22:04:33.020Z,2.35
2022-08-28T22:06:59.505Z,1.65
2022-08-28T22:09:26.095Z,1.88
2022-08-28T22:11:52.669Z,2.05
2022-08-28T22:14:19.231Z,1.98
2022-08-28T22:16:46.414Z,1.83
2022-08-28T22:19:12.991Z,1.58
2022-08-28T22:21:58.120Z,2.00
2022-08-28T22:24:24.720Z,2.10
2022-08-28T22:26:53.250Z,1.85
2022-08-28T22:29:24.745Z,2.30
2022-08-28T22:31:51.473Z,2.20
2022-08-28T22:34:18.699Z,2.13
2022-08-28T22:36:45.198Z,2.13
2022-08-28T22:39:11.739Z,1.80
2022-08-28T22:41:38.656Z,2.08
2022-08-28T22:44:05.313Z,2.05
2022-08-28T22:46:31.822Z,2.38
2022-08-28T22:48:59.251Z,2.30
2022-08-28T22:51:25.735Z,2.78
2022-08-28T22:53:52.491Z,2.15
2022-08-28T22:56:18.985Z,2.15
2022-08-28T22:58:45.726Z,1.98
2022-08-28T23:01:17.499Z,2.13
2022-08-28T23:03:45.111Z,2.30
2022-08-28T23:06:12.398Z,2.30
2022-08-28T23:08:38.899Z,2.22
2022-08-28T23:11:06.292Z,2.03
2022-08-28T23:13:33.013Z,2.08
2022-08-28T23:16:01.491Z,2.08
2022-08-28T23:18:28.756Z,2.00
2022-08-28T23:20:56.093Z,1.98
2022-08-28T23:23:22.956Z,2.00
2022-08-28T23:25:50.502Z,2.00
2022-08-28T23:28:18.395Z,1.98
2022-08-28T23:30:49.528Z,2.72
2022-08-28T23:33:23.815Z,2.38
2022-08-28T23:35:51.612Z,2.30
2022-08-28T23:38:18.423Z,1.88
2022-08-28T23:40:48.084Z,2.27
2022-08-28T23:43:15.207Z,2.50
2022-08-28T23:45:42.896Z,2.33
2022-08-28T23:48:10.036Z,1.83
2022-08-28T23:50:40.317Z,2.47
2022-08-28T23:53:08.427Z,2.25
2022-08-28T23:55:35.986Z,2.60
2022-08-28T23:58:03.363Z,2.30
